createdAt,value
2022-12-11T00:00:15.660Z,75.02
2022-12-11T00:02:44.424Z,75.63
2022-12-11T00:05:12.841Z,75.46
2022-12-11T00:07:40.947Z,75.22
2022-12-11T00:10:11.768Z,74.79
2022-12-11T00:12:42.622Z,75.34
2022-12-11T00:15:13.075Z,74.92
2022-12-11T00:17:41.560Z,74.55
2022-12-11T00:20:12.669Z,75.09
2022-12-11T00:22:40.583Z,74.35
2022-12-11T00:25:09.930Z,74.77
2022-12-11T00:27:38.611Z,73.92
2022-12-11T00:30:10.540Z,74.20
2022-12-11T00:32:40.236Z,74.14
2022-12-11T00:35:10.350Z,73.64
2022-12-11T00:37:38.559Z,74.05
2022-12-11T00:40:08.435Z,73.31
2022-12-11T00:42:37.190Z,73.33
2022-12-11T00:45:08.814Z,74.25
2022-12-11T00:47:37.145Z,73.77
2022-12-11T00:50:09.377Z,73.81
2022-12-11T00:52:37.901Z,73.65
2022-12-11T00:55:07.560Z,73.11
2022-12-11T00:57:37.105Z,73.94
2022-12-11T01:00:07.311Z,74.15
2022-12-11T01:02:36.427Z,74.43
2022-12-11T01:05:06.933Z,73.85
2022-12-11T01:07:35.015Z,72.92
2022-12-11T01:10:23.154Z,73.52
2022-12-11T01:12:52.358Z,74.08
2022-12-11T01:15:24.014Z,73.70
2022-12-11T01:17:53.050Z,74.31
2022-12-11T01:20:24.381Z,73.78
2022-12-11T01:22:57.788Z,74.25
2022-12-11T01:25:27.741Z,73.88
2022-12-11T01:27:57.034Z,74.21
2022-12-11T01:30:26.753Z,74.57
2022-12-11T01:32:55.908Z,74.32
2022-12-11T01:35:25.413Z,75.06
2022-12-11T01:37:55.371Z,74.05
2022-12-11T01:40:24.581Z,75.14
2022-12-11T01:42:52.811Z,74.84
2022-12-11T01:45:45.923Z,74.51
2022-12-11T01:48:16.199Z,74.41
2022-12-11T01:50:50.123Z,74.86
2022-12-11T01:53:21.472Z,74.54
2022-12-11T01:55:51.561Z,74.89
2022-12-11T01:58:21.559Z,74.63
2022-12-11T02:00:49.781Z,73.86
2022-12-11T02:03:19.946Z,74.71
2022-12-11T02:05:49.311Z,75.20
2022-12-11T02:08:18.054Z,75.00
2022-12-11T02:11:03.139Z,75.21
2022-12-11T02:13:38.502Z,74.71
2022-12-11T02:16:10.630Z,75.27
2022-12-11T02:18:46.415Z,75.82
2022-12-11T02:21:22.895Z,75.61
2022-12-11T02:24:02.351Z,75.28
2022-12-11T02:26:43.949Z,75.25
2022-12-11T02:29:15.976Z,75.57
2022-12-11T02:31:47.443Z,75.77
2022-12-11T02:34:22.056Z,75.92
2022-12-11T02:36:52.473Z,75.73
2022-12-11T02:39:22.931Z,75.32
2022-12-11T02:41:52.255Z,74.83
2022-12-11T02:44:23.669Z,75.92
2022-12-11T02:46:53.112Z,76.05
2022-12-11T02:49:24.252Z,76.73
2022-12-11T02:51:54.379Z,76.55
2022-12-11T02:54:26.924Z,76.73
2022-12-11T02:57:00.640Z,76.68
2022-12-11T02:59:35.786Z,77.56
2022-12-11T03:02:04.953Z,76.99
2022-12-11T03:04:34.346Z,77.29
2022-12-11T03:07:11.959Z,77.20
2022-12-11T03:09:42.290Z,77.89
2022-12-11T03:12:14.863Z,78.24
2022-12-11T03:14:45.715Z,77.80
2022-12-11T03:17:19.444Z,78.09
2022-12-11T03:20:01.030Z,78.75
2022-12-11T03:22:33.667Z,78.29
2022-12-11T03:25:05.932Z,78.45
2022-12-11T03:27:37.695Z,78.41
2022-12-11T03:30:11.044Z,79.07
2022-12-11T03:32:42.450Z,78.54
2022-12-11T03:35:15.249Z,78.52
2022-12-11T03:37:45.254Z,78.03
2022-12-11T03:40:17.917Z,78.73
2022-12-11T03:42:47.990Z,78.73
2022-12-11T03:45:18.066Z,79.11
2022-12-11T03:47:47.514Z,78.39
2022-12-11T03:50:19.996Z,78.67
2022-12-11T03:52:49.262Z,79.28
2022-12-11T03:55:18.859Z,78.59
2022-12-11T03:57:46.957Z,78.36
2022-12-11T04:00:18.970Z,78.96
2022-12-11T04:03:12.868Z,78.88
2022-12-11T04:05:42.933Z,78.68
2022-12-11T04:08:14.806Z,79.37
2022-12-11T04:10:43.198Z,79.15
2022-12-11T04:13:11.895Z,78.81
2022-12-11T04:15:41.064Z,79.11
2022-12-11T04:18:27.244Z,78.65
2022-12-11T04:21:13.069Z,78.76
2022-12-11T04:23:59.283Z,79.03
2022-12-11T04:26:29.943Z,78.21
2022-12-11T04:28:59.190Z,78.94
2022-12-11T04:31:31.987Z,78.10
2022-12-11T04:34:00.547Z,78.60
2022-12-11T04:36:28.532Z,78.84
2022-12-11T04:38:56.937Z,78.96
2022-12-11T04:41:26.875Z,79.31
2022-12-11T04:43:55.519Z,79.52
2022-12-11T04:46:24.862Z,78.98
2022-12-11T04:48:57.712Z,79.15
2022-12-11T04:51:26.807Z,79.86
2022-12-11T04:53:54.977Z,79.55
2022-12-11T04:56:23.268Z,79.44
2022-12-11T04:58:52.792Z,80.01
2022-12-11T05:01:22.987Z,80.14
2022-12-11T05:03:50.973Z,80.09
2022-12-11T05:06:20.313Z,79.72
2022-12-11T05:08:48.409Z,79.85
2022-12-11T05:11:18.916Z,79.55
2022-12-11T05:13:47.627Z,79.65
2022-12-11T05:16:17.119Z,79.77
2022-12-11T05:18:48.005Z,79.54
2022-12-11T05:21:17.991Z,80.25
2022-12-11T05:23:47.543Z,80.11
2022-12-11T05:26:17.860Z,79.90
2022-12-11T05:28:47.032Z,80.34
2022-12-11T05:31:19.018Z,79.32
2022-12-11T05:33:49.004Z,80.51
2022-12-11T05:36:20.177Z,80.60
2022-12-11T05:38:51.860Z,79.55
2022-12-11T05:41:22.470Z,80.42
2022-12-11T05:43:50.803Z,80.09
2022-12-11T05:46:20.210Z,80.13
2022-12-11T05:48:49.615Z,79.66
2022-12-11T05:51:18.173Z,80.25
2022-12-11T05:53:47.434Z,80.81
2022-12-11T05:56:19.938Z,80.15
2022-12-11T05:58:49.130Z,79.87
2022-12-11T06:01:19.358Z,80.29
2022-12-11T06:03:47.848Z,80.12
2022-12-11T06:06:16.267Z,79.90
2022-12-11T06:08:44.822Z,79.88
2022-12-11T06:11:14.122Z,79.95
2022-12-11T06:13:44.268Z,78.85
2022-12-11T06:16:12.823Z,78.35
2022-12-11T06:18:42.475Z,77.82
2022-12-11T06:21:15.226Z,77.67
2022-12-11T06:23:43.753Z,77.19
2022-12-11T06:26:12.699Z,78.03
2022-12-11T06:28:40.968Z,76.56
2022-12-11T06:31:10.949Z,77.28
2022-12-11T06:33:39.039Z,77.96
2022-12-11T06:36:09.174Z,76.74
2022-12-11T06:38:37.470Z,76.95
2022-12-11T06:41:06.984Z,77.35
2022-12-11T06:43:36.138Z,76.48
2022-12-11T06:46:07.225Z,76.70
2022-12-11T06:48:36.652Z,77.73
2022-12-11T06:51:07.607Z,75.96
2022-12-11T06:53:36.109Z,75.74
2022-12-11T06:56:05.485Z,75.11
2022-12-11T06:58:35.544Z,75.42
2022-12-11T07:01:03.619Z,75.72
2022-12-11T07:03:31.663Z,75.57
2022-12-11T07:06:06.346Z,76.15
2022-12-11T07:08:34.927Z,75.90
2022-12-11T07:11:05.001Z,76.11
2022-12-11T07:13:35.815Z,76.50
2022-12-11T07:16:06.907Z,76.31
2022-12-11T07:18:34.960Z,75.74
2022-12-11T07:21:05.212Z,75.08
2022-12-11T07:23:34.329Z,74.14
2022-12-11T07:26:05.926Z,74.28
2022-12-11T07:28:34.403Z,74.03
2022-12-11T07:31:08.810Z,73.65
2022-12-11T07:33:38.250Z,73.59
2022-12-11T07:36:11.373Z,72.46
2022-12-11T07:38:42.767Z,72.23
2022-12-11T07:41:13.748Z,70.96
2022-12-11T07:43:43.029Z,72.17
2022-12-11T07:46:14.128Z,72.09
2022-12-11T07:48:43.653Z,72.00
2022-12-11T07:51:16.086Z,72.62
2022-12-11T07:53:45.656Z,72.12
2022-12-11T07:56:13.702Z,72.06
2022-12-11T07:58:41.645Z,72.36
2022-12-11T08:01:13.465Z,72.81
2022-12-11T08:03:43.049Z,72.76
2022-12-11T08:06:11.703Z,73.01
2022-12-11T08:08:43.661Z,72.47
2022-12-11T08:11:14.494Z,72.65
2022-12-11T08:13:44.062Z,72.54
2022-12-11T08:16:14.493Z,72.95
2022-12-11T08:18:43.861Z,73.01
2022-12-11T08:21:15.836Z,72.83
2022-12-11T08:23:45.680Z,73.24
2022-12-11T08:26:16.513Z,73.40
2022-12-11T08:28:44.789Z,72.88
2022-12-11T08:31:14.436Z,72.64
2022-12-11T08:33:44.619Z,72.80
2022-12-11T08:36:14.435Z,73.20
2022-12-11T08:38:44.447Z,72.62
2022-12-11T08:41:16.285Z,72.46
2022-12-11T08:43:44.963Z,72.32
2022-12-11T08:46:14.146Z,72.14
2022-12-11T08:48:44.112Z,72.38
2022-12-11T08:51:14.074Z,72.68
2022-12-11T08:53:43.285Z,72.52
2022-12-11T08:56:15.664Z,72.61
2022-12-11T08:58:43.940Z,71.92
2022-12-11T09:01:14.041Z,71.49
2022-12-11T09:03:43.513Z,71.87
2022-12-11T09:06:14.251Z,72.12
2022-12-11T09:08:46.021Z,73.01
2022-12-11T09:11:20.405Z,72.13
2022-12-11T09:13:49.388Z,71.60
2022-12-11T09:16:19.499Z,71.67
2022-12-11T09:18:49.263Z,74.89
2022-12-11T09:21:19.491Z,80.09
2022-12-11T09:23:48.226Z,76.89
2022-12-11T09:26:21.193Z,73.80
2022-12-11T09:28:53.156Z,71.52
2022-12-11T09:31:24.078Z,69.26
2022-12-11T09:33:55.701Z,70.83
2022-12-11T09:36:24.716Z,71.32
2022-12-11T09:38:53.539Z,70.99
2022-12-11T09:41:38.497Z,70.65
2022-12-11T09:44:36.025Z,71.78
2022-12-11T09:47:05.734Z,71.94
2022-12-11T09:49:39.250Z,71.33
2022-12-11T09:52:14.472Z,71.93
2022-12-11T09:54:49.320Z,72.08
2022-12-11T09:57:33.490Z,71.88
2022-12-11T10:00:14.610Z,72.38
2022-12-11T10:02:56.612Z,72.60
2022-12-11T10:05:34.305Z,71.95
2022-12-11T10:08:08.578Z,72.44
2022-12-11T10:10:44.446Z,72.32
2022-12-11T10:13:25.164Z,72.46
2022-12-11T10:15:57.817Z,72.93
2022-12-11T10:18:30.275Z,72.57
2022-12-11T10:20:59.144Z,73.05
2022-12-11T10:23:36.751Z,72.70
2022-12-11T10:26:07.847Z,72.46
2022-12-11T10:28:39.898Z,73.23
2022-12-11T10:31:15.432Z,72.45
2022-12-11T10:33:52.581Z,72.32
2022-12-11T10:36:26.376Z,73.02
2022-12-11T10:38:54.773Z,73.05
2022-12-11T10:41:41.552Z,73.39
2022-12-11T10:44:19.117Z,72.39
2022-12-11T10:46:48.598Z,73.39
2022-12-11T10:49:25.015Z,73.67
2022-12-11T10:51:54.356Z,73.43
2022-12-11T10:54:32.916Z,73.69
2022-12-11T10:57:02.817Z,73.31
2022-12-11T10:59:36.118Z,73.56
2022-12-11T11:02:05.488Z,73.52
2022-12-11T11:04:37.701Z,73.63
2022-12-11T11:07:13.446Z,73.68
2022-12-11T11:09:44.493Z,73.62
2022-12-11T11:12:21.938Z,73.98
2022-12-11T11:15:03.906Z,73.80
2022-12-11T11:17:35.314Z,73.91
2022-12-11T11:20:13.675Z,74.35
2022-12-11T11:22:45.464Z,73.62
2022-12-11T11:25:18.641Z,73.65
2022-12-11T11:28:19.573Z,73.70
2022-12-11T11:30:58.826Z,73.91
2022-12-11T11:33:26.981Z,73.60
2022-12-11T11:35:58.770Z,74.06
2022-12-11T11:38:30.614Z,74.57
2022-12-11T11:41:11.530Z,74.25
2022-12-11T11:43:46.648Z,73.58
2022-12-11T11:46:23.260Z,73.52
2022-12-11T11:48:54.848Z,74.41
2022-12-11T11:51:28.540Z,73.96
2022-12-11T11:54:03.585Z,74.26
2022-12-11T11:56:35.544Z,74.21
2022-12-11T11:59:08.493Z,74.30
2022-12-11T12:01:40.165Z,74.39
2022-12-11T12:04:08.518Z,74.92
2022-12-11T12:06:51.970Z,74.13
2022-12-11T12:09:29.409Z,73.83
2022-12-11T12:12:07.973Z,73.93
2022-12-11T12:14:51.947Z,74.41
2022-12-11T12:17:28.051Z,73.68
2022-12-11T12:20:06.519Z,73.83
2022-12-11T12:22:49.418Z,74.27
2022-12-11T12:25:25.037Z,73.18
2022-12-11T12:28:05.986Z,73.33
2022-12-11T12:30:43.580Z,73.70
2022-12-11T12:33:22.451Z,73.50
2022-12-11T12:36:02.076Z,73.25
2022-12-11T12:38:41.760Z,72.39
2022-12-11T12:41:19.702Z,73.31
2022-12-11T12:44:14.103Z,73.84
2022-12-11T12:46:51.874Z,73.12
2022-12-11T12:49:31.684Z,73.90
2022-12-11T12:52:00.481Z,74.65
2022-12-11T12:54:30.190Z,74.18
2022-12-11T12:57:01.737Z,74.59
2022-12-11T12:59:30.203Z,73.82
2022-12-11T13:02:02.106Z,74.26
2022-12-11T13:04:55.567Z,74.46
2022-12-11T13:07:29.861Z,73.79
2022-12-11T13:10:07.309Z,73.70
2022-12-11T13:12:44.226Z,74.35
2022-12-11T13:15:36.732Z,74.61
2022-12-11T13:18:23.874Z,74.47
2022-12-11T13:20:54.472Z,74.37
2022-12-11T13:23:29.733Z,74.75
2022-12-11T13:26:01.280Z,74.32
2022-12-11T13:28:51.098Z,75.01
2022-12-11T13:31:42.882Z,73.78
2022-12-11T13:34:19.702Z,73.79
2022-12-11T13:36:52.467Z,73.89
2022-12-11T13:39:24.382Z,75.03
2022-12-11T13:41:58.066Z,75.12
2022-12-11T13:44:47.787Z,75.40
2022-12-11T13:47:19.041Z,75.00
2022-12-11T13:49:49.772Z,75.63
2022-12-11T13:53:05.315Z,75.34
2022-12-11T13:55:36.406Z,75.11
2022-12-11T13:58:04.454Z,75.72
2022-12-11T14:00:34.414Z,75.49
2022-12-11T14:03:09.320Z,76.24
2022-12-11T14:05:38.252Z,74.99
2022-12-11T14:08:14.667Z,76.20
2022-12-11T14:10:43.643Z,76.14
2022-12-11T14:13:19.644Z,75.41
2022-12-11T14:15:51.708Z,76.21
2022-12-11T14:18:24.955Z,76.02
2022-12-11T14:20:58.870Z,76.09
2022-12-11T14:23:33.377Z,76.62
2022-12-11T14:26:03.183Z,76.83
2022-12-11T14:28:38.429Z,77.29
2022-12-11T14:31:08.007Z,77.13
2022-12-11T14:33:39.889Z,77.65
2022-12-11T14:36:10.166Z,77.14
2022-12-11T14:38:47.569Z,77.41
2022-12-11T14:41:28.680Z,77.50
2022-12-11T14:43:59.037Z,77.94
2022-12-11T14:46:34.060Z,77.92
2022-12-11T14:49:07.052Z,78.15
2022-12-11T14:51:38.313Z,78.11
2022-12-11T14:54:17.330Z,77.80
2022-12-11T14:56:49.244Z,78.55
2022-12-11T14:59:25.472Z,78.07
2022-12-11T15:02:01.666Z,77.74
2022-12-11T15:04:32.309Z,77.87
2022-12-11T15:07:01.524Z,77.65
2022-12-11T15:09:39.830Z,77.65
2022-12-11T15:12:13.142Z,78.11
2022-12-11T15:14:46.860Z,77.78
2022-12-11T15:17:16.788Z,78.31
2022-12-11T15:19:51.093Z,78.50
2022-12-11T15:22:20.515Z,78.31
2022-12-11T15:24:55.003Z,78.34
2022-12-11T15:27:27.315Z,77.75
2022-12-11T15:29:57.931Z,78.37
2022-12-11T15:32:30.216Z,78.06
2022-12-11T15:35:08.872Z,79.32
2022-12-11T15:37:40.669Z,78.85
2022-12-11T15:40:12.205Z,78.98
2022-12-11T15:42:43.014Z,78.56
2022-12-11T15:45:18.357Z,78.27
2022-12-11T15:47:51.279Z,78.89
2022-12-11T15:50:23.100Z,78.53
2022-12-11T15:52:53.348Z,78.55
2022-12-11T15:55:26.518Z,78.34
2022-12-11T15:57:58.070Z,78.47
2022-12-11T16:00:28.360Z,78.63
2022-12-11T16:02:58.275Z,78.38
2022-12-11T16:05:32.770Z,78.37
2022-12-11T16:08:01.412Z,78.10
2022-12-11T16:10:32.681Z,78.56
2022-12-11T16:13:02.569Z,78.93
2022-12-11T16:15:32.334Z,78.67
2022-12-11T16:18:03.180Z,78.58
2022-12-11T16:20:32.734Z,79.31
2022-12-11T16:23:01.238Z,79.60
2022-12-11T16:25:31.624Z,79.82
2022-12-11T16:28:02.764Z,78.38
2022-12-11T16:30:32.213Z,79.49
2022-12-11T16:33:01.193Z,79.23
2022-12-11T16:35:34.079Z,79.25
2022-12-11T16:38:02.927Z,79.01
2022-12-11T16:40:34.181Z,79.74
2022-12-11T16:43:04.962Z,79.23
2022-12-11T16:45:34.428Z,80.10
2022-12-11T16:48:09.535Z,79.56
2022-12-11T16:50:41.233Z,79.94
2022-12-11T16:53:09.635Z,79.12
2022-12-11T16:55:40.838Z,79.49
2022-12-11T16:58:11.193Z,79.68
2022-12-11T17:00:40.886Z,79.57
2022-12-11T17:03:12.129Z,80.15
2022-12-11T17:05:44.182Z,79.73
2022-12-11T17:08:13.802Z,79.78
2022-12-11T17:10:44.929Z,80.20
2022-12-11T17:13:15.484Z,80.58
2022-12-11T17:15:43.986Z,80.48
2022-12-11T17:18:12.462Z,81.10
2022-12-11T17:20:41.725Z,81.15
2022-12-11T17:23:10.618Z,80.70
2022-12-11T17:25:41.551Z,81.07
2022-12-11T17:28:11.728Z,81.41
2022-12-11T17:30:42.759Z,81.86
2022-12-11T17:33:10.889Z,81.89
2022-12-11T17:35:39.791Z,82.75
2022-12-11T17:38:09.615Z,81.99
2022-12-11T17:40:41.237Z,81.48
2022-12-11T17:43:09.490Z,82.12
2022-12-11T17:45:44.384Z,82.84
2022-12-11T17:48:12.946Z,82.49
2022-12-11T17:50:42.641Z,82.10
2022-12-11T17:53:12.939Z,82.47
2022-12-11T17:55:42.827Z,82.44
2022-12-11T17:58:13.096Z,82.13
2022-12-11T18:00:45.673Z,82.16
2022-12-11T18:03:14.943Z,82.27
2022-12-11T18:05:44.198Z,81.75
2022-12-11T18:08:14.410Z,82.07
2022-12-11T18:10:43.117Z,82.37
2022-12-11T18:13:12.998Z,83.34
2022-12-11T18:15:44.077Z,82.43
2022-12-11T18:18:12.718Z,82.77
2022-12-11T18:20:41.107Z,83.29
2022-12-11T18:23:09.142Z,82.81
2022-12-11T18:25:37.749Z,82.82
2022-12-11T18:28:06.539Z,82.85
2022-12-11T18:30:36.593Z,82.74
2022-12-11T18:33:06.623Z,82.74
2022-12-11T18:35:37.422Z,82.51
2022-12-11T18:38:06.317Z,82.70
2022-12-11T18:40:34.988Z,82.55
2022-12-11T18:43:06.916Z,83.01
2022-12-11T18:45:37.228Z,82.20
2022-12-11T18:48:08.279Z,82.77
2022-12-11T18:50:43.368Z,82.64
2022-12-11T18:53:13.807Z,82.82
2022-12-11T18:55:47.625Z,82.69
2022-12-11T18:58:18.378Z,82.82
2022-12-11T19:00:48.081Z,83.37
2022-12-11T19:03:18.496Z,82.80
2022-12-11T19:05:50.035Z,82.73
2022-12-11T19:08:18.677Z,83.26
2022-12-11T19:10:50.418Z,82.72
2022-12-11T19:13:20.132Z,83.08
2022-12-11T19:15:48.386Z,83.26
2022-12-11T19:18:18.452Z,82.56
2022-12-11T19:20:50.150Z,82.45
2022-12-11T19:23:25.708Z,82.73
2022-12-11T19:25:55.871Z,82.75
2022-12-11T19:28:25.751Z,82.47
2022-12-11T19:30:55.053Z,82.68
2022-12-11T19:33:24.810Z,82.92
2022-12-11T19:36:03.538Z,82.64
2022-12-11T19:38:32.388Z,83.05
2022-12-11T19:41:06.623Z,83.32
2022-12-11T19:43:37.460Z,82.94
2022-12-11T19:46:08.231Z,83.42
2022-12-11T19:48:42.466Z,82.96
2022-12-11T19:51:13.024Z,83.25
2022-12-11T19:53:42.421Z,82.33
2022-12-11T19:56:12.988Z,82.33
2022-12-11T19:58:43.285Z,82.86
2022-12-11T20:01:25.009Z,82.16
2022-12-11T20:04:04.471Z,82.13
2022-12-11T20:06:33.868Z,81.91
2022-12-11T20:09:10.837Z,82.45
2022-12-11T20:11:41.365Z,81.59
2022-12-11T20:14:10.165Z,82.01
2022-12-11T20:17:09.165Z,81.21
2022-12-11T20:19:29.897Z,81.31
2022-12-11T20:22:04.942Z,81.07
2022-12-11T20:24:35.546Z,81.09
2022-12-11T20:27:04.730Z,81.41
2022-12-11T20:29:36.055Z,82.12
2022-12-11T20:32:07.318Z,81.23
2022-12-11T20:34:40.336Z,81.22
2022-12-11T20:37:09.126Z,81.08
2022-12-11T20:39:41.106Z,81.74
2022-12-11T20:42:12.314Z,81.63
2022-12-11T20:44:45.633Z,82.81
2022-12-11T20:47:19.882Z,81.50
2022-12-11T20:49:50.208Z,81.28
2022-12-11T20:52:22.544Z,81.71
2022-12-11T20:54:52.123Z,82.12
2022-12-11T20:57:22.986Z,82.09
2022-12-11T20:59:51.159Z,81.15
2022-12-11T21:02:20.427Z,81.33
2022-12-11T21:04:55.004Z,81.27
2022-12-11T21:07:23.651Z,81.49
2022-12-11T21:09:53.712Z,81.80
2022-12-11T21:12:29.795Z,82.21
2022-12-11T21:14:59.877Z,82.48
2022-12-11T21:17:31.666Z,81.51
2022-12-11T21:20:04.157Z,81.47
2022-12-11T21:22:33.072Z,81.88
2022-12-11T21:25:04.227Z,82.37
2022-12-11T21:27:39.747Z,82.03
2022-12-11T21:30:09.614Z,82.41
2022-12-11T21:32:44.530Z,82.96
2022-12-11T21:35:14.674Z,82.57
2022-12-11T21:37:42.969Z,83.33
2022-12-11T21:40:13.873Z,84.11
2022-12-11T21:42:44.816Z,83.47
2022-12-11T21:48:04.490Z,83.70
2022-12-11T21:50:35.037Z,83.86
2022-12-11T21:53:04.629Z,83.74
2022-12-11T21:55:42.274Z,84.96
2022-12-11T21:58:11.151Z,84.47
2022-12-11T22:00:41.045Z,84.53
2022-12-11T22:03:10.150Z,84.42
2022-12-11T22:05:42.788Z,84.90
2022-12-11T22:08:11.559Z,84.27
2022-12-11T22:10:40.651Z,84.55
2022-12-11T22:13:10.715Z,84.91
2022-12-11T22:15:43.616Z,84.61
2022-12-11T22:18:16.056Z,84.62
2022-12-11T22:20:48.569Z,84.81
2022-12-11T22:23:17.024Z,85.00
2022-12-11T22:25:54.710Z,85.64
2022-12-11T22:28:23.626Z,84.78
2022-12-11T22:30:51.837Z,84.74
2022-12-11T22:33:24.053Z,85.14
2022-12-11T22:36:01.912Z,84.16
2022-12-11T22:38:30.952Z,84.49
2022-12-11T22:41:03.350Z,85.07
2022-12-11T22:43:31.351Z,85.25
2022-12-11T22:45:59.498Z,84.77
2022-12-11T22:48:29.848Z,85.44
2022-12-11T22:51:05.630Z,84.38
2022-12-11T22:53:33.828Z,85.29
2022-12-11T22:56:06.110Z,84.82
2022-12-11T22:58:36.392Z,84.32
2022-12-11T23:01:10.938Z,84.93
2022-12-11T23:03:39.133Z,84.09
2022-12-11T23:06:13.675Z,85.05
2022-12-11T23:08:47.643Z,85.49
2022-12-11T23:11:18.958Z,84.82
2022-12-11T23:13:51.806Z,85.59
2022-12-11T23:16:22.207Z,85.25
2022-12-11T23:18:52.624Z,84.74
2022-12-11T23:21:26.266Z,85.74
2022-12-11T23:23:59.322Z,85.37
2022-12-11T23:26:30.073Z,85.39
2022-12-11T23:29:05.312Z,85.22
2022-12-11T23:31:40.133Z,85.21
2022-12-11T23:34:09.979Z,85.29
2022-12-11T23:36:41.320Z,85.51
2022-12-11T23:39:10.028Z,85.46
2022-12-11T23:41:38.448Z,85.41
2022-12-11T23:44:06.894Z,85.39
2022-12-11T23:46:36.208Z,85.37
2022-12-11T23:49:05.853Z,85.42
2022-12-11T23:51:35.751Z,85.13
2022-12-11T23:54:08.795Z,85.18
2022-12-11T23:56:36.973Z,84.68
2022-12-11T23:59:05.145Z,84.58
